createdAt,value
2018-04-06T00:00:04.923Z,16.09344
2018-04-06T00:00:17.106Z,16.09344
2018-04-06T00:00:29.277Z,16.09344
2018-04-06T00:00:41.447Z,16.09344
2018-04-06T00:00:53.613Z,16.09344
2018-04-06T00:01:05.792Z,8.04672
2018-04-06T00:01:17.938Z,20.921472
2018-04-06T00:01:30.105Z,20.921472
2018-04-06T00:01:42.242Z,20.921472
2018-04-06T00:01:54.431Z,22.530816
2018-04-06T00:02:06.610Z,14.484096
2018-04-06T00:02:18.782Z,14.484096
2018-04-06T00:02:30.955Z,16.09344
2018-04-06T00:02:43.096Z,17.702784
2018-04-06T00:02:55.251Z,17.702784
2018-04-06T00:03:07.423Z,12.874752
2018-04-06T00:03:19.639Z,16.09344
2018-04-06T00:03:31.796Z,25.749504
2018-04-06T00:03:43.944Z,30.577536
2018-04-06T00:03:56.095Z,30.577536
2018-04-06T00:04:08.254Z,25.749504
2018-04-06T00:04:20.424Z,25.749504
2018-04-06T00:04:32.586Z,25.749504
2018-04-06T00:04:45.143Z,28.968192
2018-04-06T00:04:57.273Z,28.968192
2018-04-06T00:05:09.424Z,14.484096
2018-04-06T00:05:21.589Z,19.312128
2018-04-06T00:05:33.736Z,20.921472
2018-04-06T00:05:45.903Z,20.921472
2018-04-06T00:05:58.051Z,20.921472
2018-04-06T00:06:10.181Z,17.702784
2018-04-06T00:06:22.381Z,17.702784
2018-04-06T00:06:34.542Z,17.702784
2018-04-06T00:06:46.698Z,19.312128
2018-04-06T00:06:58.853Z,19.312128
2018-04-06T00:07:11.034Z,14.484096
2018-04-06T00:07:23.222Z,16.09344
2018-04-06T00:07:35.368Z,20.921472
2018-04-06T00:07:47.517Z,22.530816
2018-04-06T00:07:59.643Z,28.968192
2018-04-06T00:08:11.815Z,24.14016
2018-04-06T00:08:23.942Z,25.749504
2018-04-06T00:08:36.083Z,25.749504
2018-04-06T00:08:48.232Z,25.749504
2018-04-06T00:09:00.410Z,25.749504
2018-04-06T00:09:12.554Z,22.530816
2018-04-06T00:09:24.692Z,24.14016
2018-04-06T00:09:36.839Z,24.14016
2018-04-06T00:09:49.048Z,24.14016
2018-04-06T00:10:01.212Z,24.14016
2018-04-06T00:10:13.368Z,24.14016
2018-04-06T00:10:25.535Z,24.14016
2018-04-06T00:10:37.679Z,24.14016
2018-04-06T00:10:49.841Z,24.14016
2018-04-06T00:11:01.999Z,24.14016
2018-04-06T00:11:14.146Z,19.312128
2018-04-06T00:11:26.307Z,19.312128
2018-04-06T00:11:38.611Z,28.968192
2018-04-06T00:11:50.916Z,28.968192
2018-04-06T00:12:03.063Z,28.968192
2018-04-06T00:12:15.226Z,20.921472
2018-04-06T00:12:27.356Z,20.921472
2018-04-06T00:12:39.496Z,28.968192
2018-04-06T00:12:51.666Z,28.968192
2018-04-06T00:13:04.063Z,19.312128
2018-04-06T00:13:16.234Z,24.14016
2018-04-06T00:13:28.396Z,24.14016
2018-04-06T00:13:40.627Z,24.14016
2018-04-06T00:13:52.766Z,24.14016
2018-04-06T00:14:04.927Z,17.702784
2018-04-06T00:14:17.074Z,17.702784
2018-04-06T00:14:29.229Z,17.702784
2018-04-06T00:14:41.394Z,20.921472
2018-04-06T00:14:53.564Z,20.921472
2018-04-06T00:15:05.770Z,14.484096
2018-04-06T00:15:17.938Z,14.484096
2018-04-06T00:15:30.074Z,14.484096
2018-04-06T00:15:42.209Z,14.484096
2018-04-06T00:15:54.369Z,14.484096
2018-04-06T00:16:06.523Z,11.265408
2018-04-06T00:16:18.683Z,19.312128
2018-04-06T00:16:30.843Z,19.312128
2018-04-06T00:16:43.008Z,19.312128
2018-04-06T00:16:55.151Z,19.312128
2018-04-06T00:17:07.310Z,11.265408
2018-04-06T00:17:19.468Z,16.09344
2018-04-06T00:17:31.658Z,16.09344
2018-04-06T00:17:44.143Z,19.312128
2018-04-06T00:17:56.523Z,22.530816
2018-04-06T00:18:08.656Z,19.312128
2018-04-06T00:18:20.811Z,19.312128
2018-04-06T00:18:32.960Z,19.312128
2018-04-06T00:18:45.139Z,19.312128
2018-04-06T00:18:57.279Z,19.312128
2018-04-06T00:19:09.426Z,22.530816
2018-04-06T00:19:21.584Z,22.530816
2018-04-06T00:19:33.736Z,22.530816
2018-04-06T00:19:45.874Z,22.530816
2018-04-06T00:19:58.072Z,22.530816
2018-04-06T00:20:10.236Z,20.921472
2018-04-06T00:20:22.353Z,20.921472
2018-04-06T00:20:34.550Z,20.921472
2018-04-06T00:20:46.691Z,20.921472
2018-04-06T00:20:58.841Z,20.921472
2018-04-06T00:21:11.031Z,14.484096
2018-04-06T00:21:23.161Z,14.484096
2018-04-06T00:21:35.343Z,14.484096
2018-04-06T00:21:47.518Z,14.484096
2018-04-06T00:21:59.671Z,14.484096
2018-04-06T00:22:11.822Z,9.656064
2018-04-06T00:22:23.986Z,12.874752
2018-04-06T00:22:36.167Z,17.702784
2018-04-06T00:22:48.356Z,17.702784
2018-04-06T00:23:00.596Z,17.702784
2018-04-06T00:23:12.740Z,19.312128
2018-04-06T00:23:24.884Z,19.312128
2018-04-06T00:23:37.108Z,19.312128
2018-04-06T00:23:49.238Z,19.312128
2018-04-06T00:24:01.392Z,19.312128
2018-04-06T00:24:13.525Z,12.874752
2018-04-06T00:24:25.692Z,14.484096
2018-04-06T00:24:37.857Z,14.484096
2018-04-06T00:24:50.028Z,14.484096
2018-04-06T00:25:02.171Z,14.484096
2018-04-06T00:25:14.453Z,6.437376
2018-04-06T00:25:26.619Z,11.265408
2018-04-06T00:25:38.779Z,11.265408
2018-04-06T00:25:50.962Z,20.921472
2018-04-06T00:26:03.120Z,20.921472
2018-04-06T00:26:15.278Z,14.484096
2018-04-06T00:26:27.455Z,22.530816
2018-04-06T00:26:39.607Z,24.14016
2018-04-06T00:26:51.755Z,28.968192
2018-04-06T00:27:03.923Z,14.484096
2018-04-06T00:27:16.115Z,16.09344
2018-04-06T00:27:28.290Z,22.530816
2018-04-06T00:27:40.439Z,22.530816
2018-04-06T00:27:52.583Z,22.530816
2018-04-06T00:28:04.739Z,17.702784
2018-04-06T00:28:16.885Z,20.921472
2018-04-06T00:28:29.044Z,20.921472
2018-04-06T00:28:41.216Z,20.921472
2018-04-06T00:28:53.364Z,20.921472
2018-04-06T00:29:05.506Z,16.09344
2018-04-06T00:29:17.687Z,24.14016
2018-04-06T00:29:29.870Z,25.749504
2018-04-06T00:29:42.006Z,28.968192
2018-04-06T00:29:54.154Z,28.968192
2018-04-06T00:30:06.418Z,16.09344
2018-04-06T00:30:18.601Z,16.09344
2018-04-06T00:30:30.784Z,16.09344
2018-04-06T00:30:42.927Z,16.09344
2018-04-06T00:30:55.056Z,16.09344
2018-04-06T00:31:07.541Z,8.04672
2018-04-06T00:31:19.689Z,14.484096
2018-04-06T00:31:31.816Z,14.484096
2018-04-06T00:31:43.950Z,14.484096
2018-04-06T00:31:56.086Z,14.484096
2018-04-06T00:32:08.220Z,11.265408
2018-04-06T00:32:20.353Z,12.874752
2018-04-06T00:32:32.480Z,14.484096
2018-04-06T00:32:44.630Z,17.702784
2018-04-06T00:32:56.786Z,20.921472
2018-04-06T00:33:08.946Z,14.484096
2018-04-06T00:33:21.120Z,20.921472
2018-04-06T00:33:33.272Z,20.921472
2018-04-06T00:33:45.420Z,20.921472
2018-04-06T00:33:57.564Z,20.921472
2018-04-06T00:34:10.222Z,11.265408
2018-04-06T00:34:22.420Z,12.874752
2018-04-06T00:34:34.562Z,12.874752
2018-04-06T00:34:46.717Z,12.874752
2018-04-06T00:34:58.881Z,12.874752
2018-04-06T00:35:11.053Z,12.874752
2018-04-06T00:35:23.206Z,12.874752
2018-04-06T00:35:35.356Z,17.702784
2018-04-06T00:35:47.514Z,17.702784
2018-04-06T00:35:59.699Z,17.702784
2018-04-06T00:36:11.981Z,16.09344
2018-04-06T00:36:24.185Z,28.968192
2018-04-06T00:36:36.354Z,28.968192
2018-04-06T00:36:48.501Z,28.968192
2018-04-06T00:37:00.650Z,28.968192
2018-04-06T00:37:12.840Z,14.484096
2018-04-06T00:37:24.982Z,16.09344
2018-04-06T00:37:37.146Z,19.312128
2018-04-06T00:37:49.289Z,19.312128
2018-04-06T00:38:01.414Z,19.312128
2018-04-06T00:38:13.554Z,11.265408
2018-04-06T00:38:25.690Z,14.484096
2018-04-06T00:38:37.833Z,14.484096
2018-04-06T00:38:49.982Z,14.484096
2018-04-06T00:39:02.105Z,19.312128
2018-04-06T00:39:14.246Z,22.530816
2018-04-06T00:39:26.411Z,28.968192
2018-04-06T00:39:38.549Z,28.968192
2018-04-06T00:39:50.715Z,28.968192
2018-04-06T00:40:02.850Z,28.968192
2018-04-06T00:40:15.014Z,9.656064
2018-04-06T00:40:27.203Z,12.874752
2018-04-06T00:40:39.528Z,12.874752
2018-04-06T00:40:51.684Z,17.702784
2018-04-06T00:41:03.846Z,12.874752
2018-04-06T00:41:16.020Z,16.09344
2018-04-06T00:41:28.168Z,19.312128
2018-04-06T00:41:40.317Z,19.312128
2018-04-06T00:41:52.624Z,19.312128
2018-04-06T00:42:04.914Z,19.312128
2018-04-06T00:42:17.108Z,19.312128
2018-04-06T00:42:29.264Z,19.312128
2018-04-06T00:42:41.426Z,19.312128
2018-04-06T00:42:53.569Z,19.312128
2018-04-06T00:43:05.744Z,11.265408
2018-04-06T00:43:17.873Z,11.265408
2018-04-06T00:43:29.997Z,16.09344
2018-04-06T00:43:42.164Z,16.09344
2018-04-06T00:43:54.318Z,16.09344
2018-04-06T00:44:06.516Z,17.702784
2018-04-06T00:44:18.666Z,17.702784
2018-04-06T00:44:30.825Z,22.530816
2018-04-06T00:44:42.964Z,22.530816
2018-04-06T00:44:55.107Z,22.530816
2018-04-06T00:45:07.246Z,16.09344
2018-04-06T00:45:19.401Z,19.312128
2018-04-06T00:45:31.543Z,19.312128
2018-04-06T00:45:43.700Z,19.312128
2018-04-06T00:45:55.846Z,32.18688
2018-04-06T00:46:08.024Z,19.312128
2018-04-06T00:46:20.188Z,19.312128
2018-04-06T00:46:32.327Z,19.312128
2018-04-06T00:46:44.532Z,19.312128
2018-04-06T00:46:56.732Z,19.312128
2018-04-06T00:47:08.903Z,19.312128
2018-04-06T00:47:21.055Z,19.312128
2018-04-06T00:47:33.506Z,19.312128
2018-04-06T00:47:45.739Z,19.312128
2018-04-06T00:47:58.036Z,19.312128
2018-04-06T00:48:10.191Z,8.04672
2018-04-06T00:48:22.348Z,12.874752
2018-04-06T00:48:34.497Z,16.09344
2018-04-06T00:48:46.627Z,17.702784
2018-04-06T00:48:58.787Z,17.702784
2018-04-06T00:49:10.958Z,14.484096
2018-04-06T00:49:23.100Z,25.749504
2018-04-06T00:49:35.617Z,25.749504
2018-04-06T00:49:47.799Z,25.749504
2018-04-06T00:49:59.967Z,25.749504
2018-04-06T00:50:12.156Z,17.702784
2018-04-06T00:50:24.301Z,17.702784
2018-04-06T00:50:36.452Z,17.702784
2018-04-06T00:50:48.581Z,17.702784
2018-04-06T00:51:00.723Z,17.702784
2018-04-06T00:51:12.867Z,8.04672
2018-04-06T00:51:25.011Z,12.874752
2018-04-06T00:51:37.320Z,14.484096
2018-04-06T00:51:49.463Z,14.484096
2018-04-06T00:52:01.629Z,16.09344
2018-04-06T00:52:13.758Z,14.484096
2018-04-06T00:52:26.272Z,16.09344
2018-04-06T00:52:38.437Z,16.09344
2018-04-06T00:52:50.586Z,16.09344
2018-04-06T00:53:02.767Z,16.09344
2018-04-06T00:53:14.925Z,9.656064
2018-04-06T00:53:27.085Z,11.265408
2018-04-06T00:53:39.231Z,11.265408
2018-04-06T00:53:51.342Z,16.09344
2018-04-06T00:54:03.504Z,16.09344
2018-04-06T00:54:15.634Z,14.484096
2018-04-06T00:54:27.806Z,19.312128
2018-04-06T00:54:39.991Z,19.312128
2018-04-06T00:54:52.130Z,19.312128
2018-04-06T00:55:04.319Z,9.656064
2018-04-06T00:55:16.586Z,12.874752
2018-04-06T00:55:28.729Z,12.874752
2018-04-06T00:55:40.881Z,12.874752
2018-04-06T00:55:53.010Z,16.09344
2018-04-06T00:56:05.157Z,19.312128
2018-04-06T00:56:17.308Z,19.312128
2018-04-06T00:56:29.457Z,19.312128
2018-04-06T00:56:41.634Z,19.312128
2018-04-06T00:56:53.791Z,22.530816
2018-04-06T00:57:05.966Z,11.265408
2018-04-06T00:57:18.126Z,14.484096
2018-04-06T00:57:30.525Z,17.702784
2018-04-06T00:57:42.679Z,17.702784
2018-04-06T00:57:54.863Z,17.702784
2018-04-06T00:58:07.033Z,12.874752
2018-04-06T00:58:19.185Z,16.09344
2018-04-06T00:58:31.340Z,16.09344
2018-04-06T00:58:43.502Z,16.09344
2018-04-06T00:58:55.659Z,16.09344
2018-04-06T00:59:07.831Z,12.874752
2018-04-06T00:59:19.981Z,12.874752
2018-04-06T00:59:32.123Z,12.874752
2018-04-06T00:59:44.248Z,16.09344
2018-04-06T00:59:56.409Z,17.702784
2018-04-06T01:00:08.592Z,11.265408
2018-04-06T01:00:20.786Z,11.265408
2018-04-06T01:00:32.945Z,16.09344
2018-04-06T01:00:45.128Z,16.09344
2018-04-06T01:00:57.295Z,16.09344
2018-04-06T01:01:09.468Z,12.874752
2018-04-06T01:01:21.653Z,12.874752
2018-04-06T01:01:33.846Z,16.09344
2018-04-06T01:01:46.008Z,16.09344
2018-04-06T01:01:58.157Z,16.09344
2018-04-06T01:02:10.365Z,14.484096
2018-04-06T01:02:22.511Z,16.09344
2018-04-06T01:02:34.779Z,16.09344
2018-04-06T01:02:46.970Z,22.530816
2018-04-06T01:02:59.129Z,22.530816
2018-04-06T01:03:11.332Z,9.656064
2018-04-06T01:03:23.505Z,9.656064
2018-04-06T01:03:35.676Z,11.265408
2018-04-06T01:03:47.830Z,11.265408
2018-04-06T01:03:59.999Z,11.265408
2018-04-06T01:04:12.167Z,8.04672
2018-04-06T01:04:24.358Z,12.874752
2018-04-06T01:04:36.520Z,14.484096
2018-04-06T01:04:48.670Z,14.484096
2018-04-06T01:05:00.822Z,14.484096
2018-04-06T01:05:13.000Z,20.921472
2018-04-06T01:05:25.147Z,20.921472
2018-04-06T01:05:37.293Z,20.921472
2018-04-06T01:05:49.438Z,20.921472
2018-04-06T01:06:01.577Z,20.921472
2018-04-06T01:06:13.741Z,14.484096
2018-04-06T01:06:25.885Z,19.312128
2018-04-06T01:06:38.026Z,19.312128
2018-04-06T01:06:50.186Z,19.312128
2018-04-06T01:07:02.340Z,19.312128
2018-04-06T01:07:14.483Z,20.921472
2018-04-06T01:07:26.642Z,20.921472
2018-04-06T01:07:38.979Z,20.921472
2018-04-06T01:07:51.148Z,20.921472
2018-04-06T01:08:03.324Z,20.921472
2018-04-06T01:08:15.513Z,12.874752
2018-04-06T01:08:27.676Z,20.921472
2018-04-06T01:08:39.835Z,20.921472
2018-04-06T01:08:51.963Z,20.921472
2018-04-06T01:09:04.122Z,11.265408
2018-04-06T01:09:16.255Z,14.484096
2018-04-06T01:09:28.393Z,14.484096
2018-04-06T01:09:40.546Z,17.702784
2018-04-06T01:09:52.716Z,17.702784
2018-04-06T01:10:04.864Z,8.04672
2018-04-06T01:10:17.013Z,11.265408
2018-04-06T01:10:29.174Z,14.484096
2018-04-06T01:10:41.332Z,14.484096
2018-04-06T01:10:53.478Z,14.484096
2018-04-06T01:11:05.626Z,14.484096
2018-04-06T01:11:18.058Z,14.484096
2018-04-06T01:11:30.224Z,16.09344
2018-04-06T01:11:42.644Z,16.09344
2018-04-06T01:11:54.808Z,16.09344
2018-04-06T01:12:06.973Z,16.09344
2018-04-06T01:12:19.129Z,16.09344
2018-04-06T01:12:31.274Z,16.09344
2018-04-06T01:12:43.413Z,16.09344
2018-04-06T01:12:55.558Z,16.09344
2018-04-06T01:13:07.837Z,11.265408
2018-04-06T01:13:19.983Z,11.265408
2018-04-06T01:13:32.143Z,12.874752
2018-04-06T01:13:44.323Z,12.874752
2018-04-06T01:13:56.495Z,12.874752
2018-04-06T01:14:08.651Z,9.656064
2018-04-06T01:14:20.806Z,11.265408
2018-04-06T01:14:32.955Z,11.265408
2018-04-06T01:14:45.135Z,11.265408
2018-04-06T01:14:57.277Z,11.265408
2018-04-06T01:15:09.441Z,9.656064
2018-04-06T01:15:21.580Z,12.874752
2018-04-06T01:15:33.724Z,12.874752
2018-04-06T01:15:45.879Z,12.874752
2018-04-06T01:15:58.022Z,12.874752
2018-04-06T01:16:10.205Z,14.484096
2018-04-06T01:16:22.426Z,14.484096
2018-04-06T01:16:34.583Z,14.484096
2018-04-06T01:16:46.719Z,14.484096
2018-04-06T01:16:58.886Z,14.484096
2018-04-06T01:17:11.071Z,6.437376
2018-04-06T01:17:23.199Z,8.04672
2018-04-06T01:17:35.371Z,14.484096
2018-04-06T01:17:47.670Z,17.702784
2018-04-06T01:17:59.818Z,19.312128
2018-04-06T01:18:11.971Z,19.312128
2018-04-06T01:18:24.113Z,19.312128
2018-04-06T01:18:36.319Z,19.312128
2018-04-06T01:18:48.456Z,19.312128
2018-04-06T01:19:00.609Z,19.312128
2018-04-06T01:19:12.759Z,11.265408
2018-04-06T01:19:24.896Z,17.702784
2018-04-06T01:19:37.069Z,17.702784
2018-04-06T01:19:49.224Z,20.921472
2018-04-06T01:20:01.386Z,20.921472
2018-04-06T01:20:13.546Z,22.530816
2018-04-06T01:20:25.703Z,22.530816
2018-04-06T01:20:37.866Z,22.530816
2018-04-06T01:20:50.024Z,22.530816
2018-04-06T01:21:02.212Z,22.530816
2018-04-06T01:21:14.369Z,8.04672
2018-04-06T01:21:26.521Z,11.265408
2018-04-06T01:21:38.677Z,12.874752
2018-04-06T01:21:50.815Z,12.874752
2018-04-06T01:22:02.945Z,19.312128
2018-04-06T01:22:15.223Z,24.14016
2018-04-06T01:22:27.362Z,24.14016
2018-04-06T01:22:39.487Z,24.14016
2018-04-06T01:22:51.689Z,30.577536
2018-04-06T01:23:03.839Z,14.484096
2018-04-06T01:23:15.986Z,20.921472
2018-04-06T01:23:28.203Z,20.921472
2018-04-06T01:23:40.526Z,20.921472
2018-04-06T01:23:52.662Z,20.921472
2018-04-06T01:24:04.805Z,14.484096
2018-04-06T01:24:16.971Z,17.702784
2018-04-06T01:24:29.119Z,20.921472
2018-04-06T01:24:41.285Z,20.921472
2018-04-06T01:24:53.423Z,20.921472
2018-04-06T01:25:05.599Z,17.702784
2018-04-06T01:25:17.743Z,17.702784
2018-04-06T01:25:29.875Z,19.312128
2018-04-06T01:25:42.019Z,19.312128
2018-04-06T01:25:54.221Z,19.312128
2018-04-06T01:26:06.406Z,9.656064
2018-04-06T01:26:18.540Z,24.14016
2018-04-06T01:26:30.673Z,24.14016
2018-04-06T01:26:42.810Z,24.14016
2018-04-06T01:26:54.961Z,24.14016
2018-04-06T01:27:07.108Z,14.484096
2018-04-06T01:27:19.242Z,17.702784
2018-04-06T01:27:31.389Z,17.702784
2018-04-06T01:27:43.520Z,17.702784
2018-04-06T01:27:55.678Z,17.702784
2018-04-06T01:28:07.842Z,11.265408
2018-04-06T01:28:20.000Z,14.484096
2018-04-06T01:28:32.154Z,14.484096
2018-04-06T01:28:44.330Z,14.484096
2018-04-06T01:28:56.490Z,14.484096
2018-04-06T01:29:08.651Z,9.656064
2018-04-06T01:29:20.793Z,9.656064
2018-04-06T01:29:32.934Z,12.874752
2018-04-06T01:29:45.094Z,17.702784
2018-04-06T01:29:57.264Z,17.702784
2018-04-06T01:30:09.403Z,17.702784
2018-04-06T01:30:21.541Z,20.921472
2018-04-06T01:30:33.702Z,20.921472
2018-04-06T01:30:45.877Z,20.921472
2018-04-06T01:30:58.051Z,20.921472
2018-04-06T01:31:10.222Z,12.874752
2018-04-06T01:31:22.358Z,12.874752
2018-04-06T01:31:34.513Z,12.874752
2018-04-06T01:31:46.660Z,12.874752
2018-04-06T01:31:58.791Z,17.702784
2018-04-06T01:32:10.945Z,9.656064
2018-04-06T01:32:23.076Z,9.656064
2018-04-06T01:32:35.211Z,9.656064
2018-04-06T01:32:47.359Z,9.656064
2018-04-06T01:32:59.511Z,9.656064
2018-04-06T01:33:11.643Z,9.656064
2018-04-06T01:33:23.799Z,11.265408
2018-04-06T01:33:35.934Z,11.265408
2018-04-06T01:33:48.173Z,11.265408
2018-04-06T01:34:00.338Z,16.09344
2018-04-06T01:34:12.476Z,14.484096
2018-04-06T01:34:24.633Z,14.484096
2018-04-06T01:34:36.768Z,14.484096
2018-04-06T01:34:48.964Z,14.484096
2018-04-06T01:35:01.116Z,14.484096
2018-04-06T01:35:13.272Z,11.265408
2018-04-06T01:35:25.406Z,11.265408
2018-04-06T01:35:37.598Z,11.265408
2018-04-06T01:35:49.733Z,19.312128
2018-04-06T01:36:01.866Z,19.312128
2018-04-06T01:36:14.014Z,12.874752
2018-04-06T01:36:26.137Z,14.484096
2018-04-06T01:36:38.321Z,17.702784
2018-04-06T01:36:50.480Z,17.702784
2018-04-06T01:37:02.619Z,17.702784
2018-04-06T01:37:14.746Z,11.265408
2018-04-06T01:37:26.911Z,11.265408
2018-04-06T01:37:39.042Z,11.265408
2018-04-06T01:37:51.172Z,14.484096
2018-04-06T01:38:03.326Z,17.702784
2018-04-06T01:38:15.482Z,11.265408
2018-04-06T01:38:27.647Z,14.484096
2018-04-06T01:38:40.024Z,16.09344
2018-04-06T01:38:52.180Z,16.09344
2018-04-06T01:39:04.338Z,8.04672
2018-04-06T01:39:16.528Z,14.484096
2018-04-06T01:39:28.665Z,14.484096
2018-04-06T01:39:40.826Z,14.484096
2018-04-06T01:39:52.972Z,14.484096
2018-04-06T01:40:05.169Z,9.656064
2018-04-06T01:40:17.310Z,16.09344
2018-04-06T01:40:29.448Z,19.312128
2018-04-06T01:40:41.713Z,19.312128
2018-04-06T01:40:53.857Z,19.312128
2018-04-06T01:41:06.031Z,9.656064
2018-04-06T01:41:18.207Z,16.09344
2018-04-06T01:41:30.353Z,16.09344
2018-04-06T01:41:42.520Z,17.702784
2018-04-06T01:41:54.677Z,17.702784
2018-04-06T01:42:06.827Z,9.656064
2018-04-06T01:42:18.956Z,17.702784
2018-04-06T01:42:31.115Z,17.702784
2018-04-06T01:42:43.270Z,17.702784
2018-04-06T01:42:55.404Z,17.702784
2018-04-06T01:43:07.529Z,9.656064
2018-04-06T01:43:19.679Z,11.265408
2018-04-06T01:43:31.827Z,11.265408
2018-04-06T01:43:44.044Z,11.265408
2018-04-06T01:43:56.218Z,11.265408
2018-04-06T01:44:08.380Z,11.265408
2018-04-06T01:44:20.526Z,11.265408
2018-04-06T01:44:32.675Z,14.484096
2018-04-06T01:44:44.873Z,14.484096
2018-04-06T01:44:57.018Z,14.484096
2018-04-06T01:45:09.184Z,20.921472
2018-04-06T01:45:21.340Z,20.921472
2018-04-06T01:45:33.483Z,20.921472
2018-04-06T01:45:45.694Z,20.921472
2018-04-06T01:45:57.830Z,20.921472
2018-04-06T01:46:10.007Z,9.656064
2018-04-06T01:46:22.185Z,14.484096
2018-04-06T01:46:34.397Z,16.09344
2018-04-06T01:46:46.582Z,24.14016
2018-04-06T01:46:58.759Z,25.749504
2018-04-06T01:47:10.920Z,16.09344
2018-04-06T01:47:23.077Z,16.09344
2018-04-06T01:47:35.234Z,16.09344
2018-04-06T01:47:47.375Z,16.09344
2018-04-06T01:47:59.660Z,16.09344
2018-04-06T01:48:11.786Z,9.656064
2018-04-06T01:48:23.928Z,12.874752
2018-04-06T01:48:36.085Z,17.702784
2018-04-06T01:48:48.217Z,17.702784
2018-04-06T01:49:00.377Z,30.577536
2018-04-06T01:49:12.524Z,22.530816
2018-04-06T01:49:24.810Z,22.530816
2018-04-06T01:49:36.950Z,22.530816
2018-04-06T01:49:49.126Z,22.530816
2018-04-06T01:50:01.286Z,22.530816
2018-04-06T01:50:13.458Z,9.656064
2018-04-06T01:50:25.590Z,9.656064
2018-04-06T01:50:37.720Z,16.09344
2018-04-06T01:50:49.879Z,16.09344
2018-04-06T01:51:02.048Z,16.09344
2018-04-06T01:51:14.186Z,19.312128
2018-04-06T01:51:26.328Z,19.312128
2018-04-06T01:51:38.683Z,22.530816
2018-04-06T01:51:50.846Z,22.530816
2018-04-06T01:52:02.982Z,22.530816
2018-04-06T01:52:15.142Z,14.484096
2018-04-06T01:52:27.505Z,14.484096
2018-04-06T01:52:39.667Z,14.484096
2018-04-06T01:52:51.806Z,14.484096
2018-04-06T01:53:04.259Z,9.656064
2018-04-06T01:53:16.412Z,9.656064
2018-04-06T01:53:28.528Z,16.09344
2018-04-06T01:53:40.668Z,20.921472
2018-04-06T01:53:52.807Z,22.530816
2018-04-06T01:54:04.944Z,14.484096
2018-04-06T01:54:17.093Z,14.484096
2018-04-06T01:54:29.242Z,14.484096
2018-04-06T01:54:41.394Z,14.484096
2018-04-06T01:54:53.526Z,16.09344
2018-04-06T01:55:05.635Z,11.265408
2018-04-06T01:55:17.778Z,16.09344
2018-04-06T01:55:29.921Z,16.09344
2018-04-06T01:55:42.044Z,16.09344
2018-04-06T01:55:54.182Z,16.09344
2018-04-06T01:56:06.332Z,12.874752
2018-04-06T01:56:18.477Z,17.702784
2018-04-06T01:56:30.621Z,17.702784
2018-04-06T01:56:42.765Z,17.702784
2018-04-06T01:56:54.895Z,24.14016
2018-04-06T01:57:07.043Z,16.09344
2018-04-06T01:57:19.193Z,16.09344
2018-04-06T01:57:31.364Z,22.530816
2018-04-06T01:57:43.496Z,22.530816
2018-04-06T01:57:55.656Z,22.530816
2018-04-06T01:58:07.797Z,6.437376
2018-04-06T01:58:20.000Z,8.04672
2018-04-06T01:58:32.152Z,14.484096
2018-04-06T01:58:44.325Z,14.484096
2018-04-06T01:58:56.489Z,19.312128
2018-04-06T01:59:08.648Z,19.312128
2018-04-06T01:59:20.779Z,19.312128
2018-04-06T01:59:32.933Z,19.312128
2018-04-06T01:59:45.061Z,19.312128
2018-04-06T01:59:57.306Z,19.312128
2018-04-06T02:00:09.612Z,17.702784
2018-04-06T02:00:21.841Z,20.921472
2018-04-06T02:00:34.023Z,20.921472
2018-04-06T02:00:46.178Z,20.921472
2018-04-06T02:00:58.352Z,20.921472
2018-04-06T02:01:10.524Z,14.484096
2018-04-06T02:01:22.676Z,14.484096
2018-04-06T02:01:34.818Z,16.09344
2018-04-06T02:01:46.952Z,16.09344
2018-04-06T02:01:59.158Z,16.09344
2018-04-06T02:02:11.305Z,12.874752
2018-04-06T02:02:23.451Z,22.530816
2018-04-06T02:02:35.673Z,22.530816
2018-04-06T02:02:47.843Z,22.530816
2018-04-06T02:03:00.013Z,22.530816
2018-04-06T02:03:12.193Z,11.265408
2018-04-06T02:03:24.368Z,11.265408
2018-04-06T02:03:36.526Z,11.265408
2018-04-06T02:03:48.687Z,11.265408
2018-04-06T02:04:00.837Z,11.265408
2018-04-06T02:04:12.980Z,12.874752
2018-04-06T02:04:25.127Z,16.09344
2018-04-06T02:04:37.269Z,17.702784
2018-04-06T02:04:49.419Z,17.702784
2018-04-06T02:05:01.591Z,17.702784
2018-04-06T02:05:13.739Z,20.921472
2018-04-06T02:05:25.888Z,20.921472
2018-04-06T02:05:38.039Z,20.921472
2018-04-06T02:05:50.188Z,20.921472
2018-04-06T02:06:02.329Z,20.921472
2018-04-06T02:06:14.465Z,19.312128
2018-04-06T02:06:26.662Z,19.312128
2018-04-06T02:06:38.824Z,19.312128
2018-04-06T02:06:51.031Z,19.312128
2018-04-06T02:07:03.157Z,19.312128
2018-04-06T02:07:15.296Z,11.265408
2018-04-06T02:07:27.438Z,14.484096
2018-04-06T02:07:39.577Z,14.484096
2018-04-06T02:07:51.714Z,14.484096
2018-04-06T02:08:03.886Z,11.265408
2018-04-06T02:08:16.053Z,14.484096
2018-04-06T02:08:28.207Z,14.484096
2018-04-06T02:08:40.355Z,14.484096
2018-04-06T02:08:52.646Z,14.484096
2018-04-06T02:09:04.820Z,9.656064
2018-04-06T02:09:16.956Z,19.312128
2018-04-06T02:09:29.099Z,19.312128
2018-04-06T02:09:41.228Z,19.312128
2018-04-06T02:09:53.355Z,19.312128
2018-04-06T02:10:05.538Z,6.437376
2018-04-06T02:10:17.686Z,6.437376
2018-04-06T02:10:29.874Z,14.484096
2018-04-06T02:10:42.008Z,14.484096
2018-04-06T02:10:54.208Z,14.484096
2018-04-06T02:11:06.373Z,11.265408
2018-04-06T02:11:18.576Z,12.874752
2018-04-06T02:11:30.763Z,12.874752
2018-04-06T02:11:42.913Z,17.702784
2018-04-06T02:11:55.366Z,19.312128
2018-04-06T02:12:07.509Z,16.09344
2018-04-06T02:12:19.638Z,19.312128
2018-04-06T02:12:31.798Z,20.921472
2018-04-06T02:12:43.940Z,20.921472
2018-04-06T02:12:56.123Z,20.921472
2018-04-06T02:13:08.414Z,9.656064
2018-04-06T02:13:20.553Z,9.656064
2018-04-06T02:13:32.743Z,9.656064
2018-04-06T02:13:44.918Z,12.874752
2018-04-06T02:13:57.042Z,14.484096
2018-04-06T02:14:09.172Z,11.265408
2018-04-06T02:14:21.404Z,12.874752
2018-04-06T02:14:33.524Z,12.874752
2018-04-06T02:14:45.673Z,12.874752
2018-04-06T02:14:57.807Z,19.312128
2018-04-06T02:15:09.973Z,16.09344
2018-04-06T02:15:22.131Z,16.09344
2018-04-06T02:15:34.302Z,16.09344
2018-04-06T02:15:46.455Z,16.09344
2018-04-06T02:15:58.607Z,16.09344
2018-04-06T02:16:10.779Z,16.09344
2018-04-06T02:16:22.958Z,16.09344
2018-04-06T02:16:35.096Z,17.702784
2018-04-06T02:16:47.245Z,17.702784
2018-04-06T02:16:59.374Z,19.312128
2018-04-06T02:17:11.520Z,12.874752
2018-04-06T02:17:23.668Z,20.921472
2018-04-06T02:17:35.793Z,20.921472
2018-04-06T02:17:48.126Z,20.921472
2018-04-06T02:18:00.271Z,20.921472
2018-04-06T02:18:12.455Z,17.702784
2018-04-06T02:18:24.620Z,17.702784
2018-04-06T02:18:36.776Z,17.702784
2018-04-06T02:18:48.930Z,17.702784
2018-04-06T02:19:01.071Z,17.702784
2018-04-06T02:19:13.273Z,12.874752
2018-04-06T02:19:25.436Z,12.874752
2018-04-06T02:19:37.584Z,12.874752
2018-04-06T02:19:49.748Z,12.874752